sensor_id;sensor_type;location;lat;lon;timestamp;temperature;humidity
20057;DHT22;10189;49.546;7.906;2023-09-18T00:00:26;18.60;87.40
20057;DHT22;10189;49.546;7.906;2023-09-18T00:02:51;18.40;88.10
20057;DHT22;10189;49.546;7.906;2023-09-18T00:05:18;18.40;88.50
20057;DHT22;10189;49.546;7.906;2023-09-18T00:07:44;18.30;88.40
20057;DHT22;10189;49.546;7.906;2023-09-18T00:10:13;18.30;88.00
20057;DHT22;10189;49.546;7.906;2023-09-18T00:12:40;18.30;87.20
20057;DHT22;10189;49.546;7.906;2023-09-18T00:15:06;18.30;87.20
20057;DHT22;10189;49.546;7.906;2023-09-18T00:17:36;18.30;86.70
20057;DHT22;10189;49.546;7.906;2023-09-18T00:20:02;18.50;85.20
20057;DHT22;10189;49.546;7.906;2023-09-18T00:22:34;18.50;85.20
20057;DHT22;10189;49.546;7.906;2023-09-18T00:25:00;18.50;85.50
20057;DHT22;10189;49.546;7.906;2023-09-18T00:27:29;18.40;85.70
20057;DHT22;10189;49.546;7.906;2023-09-18T00:29:55;18.30;85.90
20057;DHT22;10189;49.546;7.906;2023-09-18T00:32:21;18.30;85.90
20057;DHT22;10189;49.546;7.906;2023-09-18T00:34:47;18.20;86.30
20057;DHT22;10189;49.546;7.906;2023-09-18T00:37:13;18.10;86.80
20057;DHT22;10189;49.546;7.906;2023-09-18T00:39:39;18.00;87.00
20057;DHT22;10189;49.546;7.906;2023-09-18T00:42:06;18.00;87.20
20057;DHT22;10189;49.546;7.906;2023-09-18T00:44:32;17.90;87.20
20057;DHT22;10189;49.546;7.906;2023-09-18T00:46:58;17.90;87.40
20057;DHT22;10189;49.546;7.906;2023-09-18T00:49:25;17.90;87.60
20057;DHT22;10189;49.546;7.906;2023-09-18T00:51:51;17.80;88.10
20057;DHT22;10189;49.546;7.906;2023-09-18T00:54:18;17.80;88.50
20057;DHT22;10189;49.546;7.906;2023-09-18T00:56:46;17.80;88.80
20057;DHT22;10189;49.546;7.906;2023-09-18T00:59:14;17.80;88.60
20057;DHT22;10189;49.546;7.906;2023-09-18T01:01:40;17.80;88.30
20057;DHT22;10189;49.546;7.906;2023-09-18T01:04:11;17.80;88.20
20057;DHT22;10189;49.546;7.906;2023-09-18T01:06:39;17.90;88.20
20057;DHT22;10189;49.546;7.906;2023-09-18T01:09:05;17.90;88.40
20057;DHT22;10189;49.546;7.906;2023-09-18T01:12:15;18.00;88.30
20057;DHT22;10189;49.546;7.906;2023-09-18T01:17:42;18.20;88.10
20057;DHT22;10189;49.546;7.906;2023-09-18T01:20:10;18.30;86.20
20057;DHT22;10189;49.546;7.906;2023-09-18T01:22:37;18.70;83.30
20057;DHT22;10189;49.546;7.906;2023-09-18T01:25:03;18.90;82.40
20057;DHT22;10189;49.546;7.906;2023-09-18T01:27:29;19.10;81.80
20057;DHT22;10189;49.546;7.906;2023-09-18T01:29:55;19.30;80.50
20057;DHT22;10189;49.546;7.906;2023-09-18T01:32:25;19.60;78.40
20057;DHT22;10189;49.546;7.906;2023-09-18T01:34:56;19.80;77.90
20057;DHT22;10189;49.546;7.906;2023-09-18T01:37:25;20.00;76.30
20057;DHT22;10189;49.546;7.906;2023-09-18T01:39:53;20.10;74.60
20057;DHT22;10189;49.546;7.906;2023-09-18T01:42:19;20.30;74.40
20057;DHT22;10189;49.546;7.906;2023-09-18T01:44:47;20.30;74.80
20057;DHT22;10189;49.546;7.906;2023-09-18T01:47:16;20.40;75.80
20057;DHT22;10189;49.546;7.906;2023-09-18T01:49:44;19.60;79.50
20057;DHT22;10189;49.546;7.906;2023-09-18T01:52:11;19.10;81.40
20057;DHT22;10189;49.546;7.906;2023-09-18T01:54:38;18.90;82.50
20057;DHT22;10189;49.546;7.906;2023-09-18T01:57:04;18.70;83.90
20057;DHT22;10189;49.546;7.906;2023-09-18T01:59:30;18.60;84.70
20057;DHT22;10189;49.546;7.906;2023-09-18T02:01:56;18.50;85.20
20057;DHT22;10189;49.546;7.906;2023-09-18T02:04:22;18.30;86.10
20057;DHT22;10189;49.546;7.906;2023-09-18T02:06:50;18.20;86.60
20057;DHT22;10189;49.546;7.906;2023-09-18T02:09:16;18.10;87.10
20057;DHT22;10189;49.546;7.906;2023-09-18T02:11:45;18.00;87.50
20057;DHT22;10189;49.546;7.906;2023-09-18T02:14:12;18.00;87.00
20057;DHT22;10189;49.546;7.906;2023-09-18T02:16:41;18.00;86.20
20057;DHT22;10189;49.546;7.906;2023-09-18T02:19:08;18.00;86.30
20057;DHT22;10189;49.546;7.906;2023-09-18T02:21:37;18.00;86.50
20057;DHT22;10189;49.546;7.906;2023-09-18T02:24:04;18.00;86.70
20057;DHT22;10189;49.546;7.906;2023-09-18T02:26:31;18.00;86.50
20057;DHT22;10189;49.546;7.906;2023-09-18T02:28:59;18.10;86.10
20057;DHT22;10189;49.546;7.906;2023-09-18T02:31:27;18.10;85.80
20057;DHT22;10189;49.546;7.906;2023-09-18T02:33:53;18.20;85.40
20057;DHT22;10189;49.546;7.906;2023-09-18T02:36:19;18.20;85.40
20057;DHT22;10189;49.546;7.906;2023-09-18T02:38:48;18.30;85.10
20057;DHT22;10189;49.546;7.906;2023-09-18T02:41:14;18.40;84.60
20057;DHT22;10189;49.546;7.906;2023-09-18T02:43:39;18.60;84.30
20057;DHT22;10189;49.546;7.906;2023-09-18T02:46:06;18.80;84.30
20057;DHT22;10189;49.546;7.906;2023-09-18T02:48:33;18.90;84.80
20057;DHT22;10189;49.546;7.906;2023-09-18T02:51:00;19.10;84.10
20057;DHT22;10189;49.546;7.906;2023-09-18T02:53:28;19.20;84.50
20057;DHT22;10189;49.546;7.906;2023-09-18T02:55:57;19.30;84.20
20057;DHT22;10189;49.546;7.906;2023-09-18T02:58:24;19.30;84.30
20057;DHT22;10189;49.546;7.906;2023-09-18T03:00:57;19.40;84.60
20057;DHT22;10189;49.546;7.906;2023-09-18T03:03:28;19.40;84.40
20057;DHT22;10189;49.546;7.906;2023-09-18T03:06:02;19.40;84.80
20057;DHT22;10189;49.546;7.906;2023-09-18T03:08:29;19.40;84.90
20057;DHT22;10189;49.546;7.906;2023-09-18T03:10:57;19.50;84.90
20057;DHT22;10189;49.546;7.906;2023-09-18T03:13:23;19.40;85.30
20057;DHT22;10189;49.546;7.906;2023-09-18T03:15:50;19.40;85.40
20057;DHT22;10189;49.546;7.906;2023-09-18T03:18:15;19.40;85.50
20057;DHT22;10189;49.546;7.906;2023-09-18T03:20:42;19.30;86.20
20057;DHT22;10189;49.546;7.906;2023-09-18T03:23:08;19.20;86.40
20057;DHT22;10189;49.546;7.906;2023-09-18T03:25:35;19.20;86.70
20057;DHT22;10189;49.546;7.906;2023-09-18T03:28:03;19.20;86.40
20057;DHT22;10189;49.546;7.906;2023-09-18T03:30:32;19.10;86.70
20057;DHT22;10189;49.546;7.906;2023-09-18T03:32:58;19.10;86.20
20057;DHT22;10189;49.546;7.906;2023-09-18T03:35:28;19.10;85.80
20057;DHT22;10189;49.546;7.906;2023-09-18T03:37:56;19.10;85.40
20057;DHT22;10189;49.546;7.906;2023-09-18T03:40:22;19.10;85.00
20057;DHT22;10189;49.546;7.906;2023-09-18T03:42:49;19.20;84.70
20057;DHT22;10189;49.546;7.906;2023-09-18T03:45:15;19.30;83.90
20057;DHT22;10189;49.546;7.906;2023-09-18T03:47:45;19.40;83.10
20057;DHT22;10189;49.546;7.906;2023-09-18T03:50:11;19.40;82.70
20057;DHT22;10189;49.546;7.906;2023-09-18T03:52:39;19.50;82.30
20057;DHT22;10189;49.546;7.906;2023-09-18T03:55:07;19.60;81.70
20057;DHT22;10189;49.546;7.906;2023-09-18T03:57:34;19.70;81.80
20057;DHT22;10189;49.546;7.906;2023-09-18T03:59:59;19.70;81.40
20057;DHT22;10189;49.546;7.906;2023-09-18T04:02:26;19.80;81.30
20057;DHT22;10189;49.546;7.906;2023-09-18T04:04:53;19.70;81.50
20057;DHT22;10189;49.546;7.906;2023-09-18T04:07:20;19.70;82.10
20057;DHT22;10189;49.546;7.906;2023-09-18T04:09:46;19.70;81.60
20057;DHT22;10189;49.546;7.906;2023-09-18T04:12:12;19.70;82.60
20057;DHT22;10189;49.546;7.906;2023-09-18T04:14:38;19.70;82.90
20057;DHT22;10189;49.546;7.906;2023-09-18T04:17:05;19.60;83.40
20057;DHT22;10189;49.546;7.906;2023-09-18T04:19:31;19.60;83.40
20057;DHT22;10189;49.546;7.906;2023-09-18T04:21:56;19.50;83.40
20057;DHT22;10189;49.546;7.906;2023-09-18T04:24:23;19.50;83.90
20057;DHT22;10189;49.546;7.906;2023-09-18T04:26:49;19.30;84.50
20057;DHT22;10189;49.546;7.906;2023-09-18T04:29:19;19.20;86.10
20057;DHT22;10189;49.546;7.906;2023-09-18T04:31:45;19.10;86.20
20057;DHT22;10189;49.546;7.906;2023-09-18T04:34:13;19.00;86.40
20057;DHT22;10189;49.546;7.906;2023-09-18T04:36:40;19.00;86.30
20057;DHT22;10189;49.546;7.906;2023-09-18T04:39:06;18.90;87.10
20057;DHT22;10189;49.546;7.906;2023-09-18T04:41:33;18.80;87.40
20057;DHT22;10189;49.546;7.906;2023-09-18T04:44:02;18.70;87.80
20057;DHT22;10189;49.546;7.906;2023-09-18T04:46:28;18.70;87.80
20057;DHT22;10189;49.546;7.906;2023-09-18T04:48:55;18.80;87.50
20057;DHT22;10189;49.546;7.906;2023-09-18T04:51:21;18.80;87.50
20057;DHT22;10189;49.546;7.906;2023-09-18T04:53:47;18.80;87.40
20057;DHT22;10189;49.546;7.906;2023-09-18T04:56:13;18.70;87.80
20057;DHT22;10189;49.546;7.906;2023-09-18T04:58:39;18.70;88.00
20057;DHT22;10189;49.546;7.906;2023-09-18T05:01:06;18.70;88.50
20057;DHT22;10189;49.546;7.906;2023-09-18T05:03:34;18.70;88.20
20057;DHT22;10189;49.546;7.906;2023-09-18T05:06:00;18.70;88.30
20057;DHT22;10189;49.546;7.906;2023-09-18T05:08:26;18.70;88.10
20057;DHT22;10189;49.546;7.906;2023-09-18T05:10:52;18.80;87.80
20057;DHT22;10189;49.546;7.906;2023-09-18T05:13:18;18.70;88.50
20057;DHT22;10189;49.546;7.906;2023-09-18T05:15:44;18.60;88.70
20057;DHT22;10189;49.546;7.906;2023-09-18T05:18:10;18.60;88.90
20057;DHT22;10189;49.546;7.906;2023-09-18T05:20:36;18.60;89.10
20057;DHT22;10189;49.546;7.906;2023-09-18T05:23:02;18.60;89.20
20057;DHT22;10189;49.546;7.906;2023-09-18T05:25:28;18.50;89.50
20057;DHT22;10189;49.546;7.906;2023-09-18T05:27:58;18.60;89.50
20057;DHT22;10189;49.546;7.906;2023-09-18T05:30:28;18.50;89.90
20057;DHT22;10189;49.546;7.906;2023-09-18T05:32:57;18.50;89.90
20057;DHT22;10189;49.546;7.906;2023-09-18T05:37:59;18.40;90.90
20057;DHT22;10189;49.546;7.906;2023-09-18T05:40:26;18.40;90.90
20057;DHT22;10189;49.546;7.906;2023-09-18T05:42:55;18.40;91.10
20057;DHT22;10189;49.546;7.906;2023-09-18T05:45:22;18.20;91.80
20057;DHT22;10189;49.546;7.906;2023-09-18T05:47:49;18.20;92.40
20057;DHT22;10189;49.546;7.906;2023-09-18T05:50:16;18.20;92.50
20057;DHT22;10189;49.546;7.906;2023-09-18T05:52:43;18.20;92.50
20057;DHT22;10189;49.546;7.906;2023-09-18T05:55:10;18.10;92.80
20057;DHT22;10189;49.546;7.906;2023-09-18T05:57:37;18.30;92.50
20057;DHT22;10189;49.546;7.906;2023-09-18T06:00:03;18.30;92.30
20057;DHT22;10189;49.546;7.906;2023-09-18T06:02:37;18.30;92.10
20057;DHT22;10189;49.546;7.906;2023-09-18T06:05:03;18.40;92.20
20057;DHT22;10189;49.546;7.906;2023-09-18T06:07:30;18.30;92.60
20057;DHT22;10189;49.546;7.906;2023-09-18T06:09:57;18.30;92.80
20057;DHT22;10189;49.546;7.906;2023-09-18T06:12:24;18.30;92.80
20057;DHT22;10189;49.546;7.906;2023-09-18T06:14:51;18.40;92.60
20057;DHT22;10189;49.546;7.906;2023-09-18T06:17:17;18.30;92.80
20057;DHT22;10189;49.546;7.906;2023-09-18T06:19:44;18.40;92.40
20057;DHT22;10189;49.546;7.906;2023-09-18T06:22:11;18.40;92.90
20057;DHT22;10189;49.546;7.906;2023-09-18T06:24:37;18.40;92.80
20057;DHT22;10189;49.546;7.906;2023-09-18T06:27:03;18.40;92.80
20057;DHT22;10189;49.546;7.906;2023-09-18T06:29:31;18.40;92.90
20057;DHT22;10189;49.546;7.906;2023-09-18T06:32:00;18.50;92.80
20057;DHT22;10189;49.546;7.906;2023-09-18T06:34:26;18.50;92.40
20057;DHT22;10189;49.546;7.906;2023-09-18T06:36:54;18.50;92.90
20057;DHT22;10189;49.546;7.906;2023-09-18T06:39:20;18.60;92.70
20057;DHT22;10189;49.546;7.906;2023-09-18T06:41:48;18.50;93.10
20057;DHT22;10189;49.546;7.906;2023-09-18T06:44:13;18.50;92.90
20057;DHT22;10189;49.546;7.906;2023-09-18T06:46:39;18.50;93.00
20057;DHT22;10189;49.546;7.906;2023-09-18T06:49:06;18.50;92.90
20057;DHT22;10189;49.546;7.906;2023-09-18T06:51:32;18.50;93.10
20057;DHT22;10189;49.546;7.906;2023-09-18T06:53:58;18.60;92.90
20057;DHT22;10189;49.546;7.906;2023-09-18T06:56:26;18.50;92.90
20057;DHT22;10189;49.546;7.906;2023-09-18T06:58:52;18.60;93.00
20057;DHT22;10189;49.546;7.906;2023-09-18T07:01:19;18.50;92.60
20057;DHT22;10189;49.546;7.906;2023-09-18T07:03:48;18.50;92.50
20057;DHT22;10189;49.546;7.906;2023-09-18T07:06:14;18.60;92.70
20057;DHT22;10189;49.546;7.906;2023-09-18T07:08:47;18.60;92.10
20057;DHT22;10189;49.546;7.906;2023-09-18T07:11:17;18.70;92.50
20057;DHT22;10189;49.546;7.906;2023-09-18T07:13:43;18.70;92.00
20057;DHT22;10189;49.546;7.906;2023-09-18T07:16:10;18.70;91.70
20057;DHT22;10189;49.546;7.906;2023-09-18T07:18:36;18.80;91.20
20057;DHT22;10189;49.546;7.906;2023-09-18T07:21:02;18.90;91.40
20057;DHT22;10189;49.546;7.906;2023-09-18T07:23:28;19.00;90.70
20057;DHT22;10189;49.546;7.906;2023-09-18T07:25:54;19.00;90.40
20057;DHT22;10189;49.546;7.906;2023-09-18T07:28:20;19.00;89.50
20057;DHT22;10189;49.546;7.906;2023-09-18T07:30:49;19.10;89.30
20057;DHT22;10189;49.546;7.906;2023-09-18T07:33:14;19.20;88.80
20057;DHT22;10189;49.546;7.906;2023-09-18T07:35:49;19.30;88.00
20057;DHT22;10189;49.546;7.906;2023-09-18T07:38:17;19.30;88.20
20057;DHT22;10189;49.546;7.906;2023-09-18T07:40:45;19.40;87.60
20057;DHT22;10189;49.546;7.906;2023-09-18T07:43:13;19.30;87.50
20057;DHT22;10189;49.546;7.906;2023-09-18T07:45:39;19.40;87.40
20057;DHT22;10189;49.546;7.906;2023-09-18T07:48:06;19.40;86.90
20057;DHT22;10189;49.546;7.906;2023-09-18T07:50:36;19.50;86.70
20057;DHT22;10189;49.546;7.906;2023-09-18T07:53:02;19.60;86.90
20057;DHT22;10189;49.546;7.906;2023-09-18T07:55:29;19.60;86.70
20057;DHT22;10189;49.546;7.906;2023-09-18T07:57:55;19.60;85.90
20057;DHT22;10189;49.546;7.906;2023-09-18T08:00:21;19.70;86.10
20057;DHT22;10189;49.546;7.906;2023-09-18T08:02:48;19.70;85.60
20057;DHT22;10189;49.546;7.906;2023-09-18T08:05:16;19.80;85.80
20057;DHT22;10189;49.546;7.906;2023-09-18T08:07:43;19.80;85.60
20057;DHT22;10189;49.546;7.906;2023-09-18T08:10:09;19.80;85.10
20057;DHT22;10189;49.546;7.906;2023-09-18T08:12:35;19.80;84.10
20057;DHT22;10189;49.546;7.906;2023-09-18T08:15:02;19.80;84.10
20057;DHT22;10189;49.546;7.906;2023-09-18T08:17:28;19.70;84.60
20057;DHT22;10189;49.546;7.906;2023-09-18T08:19:54;19.70;84.20
20057;DHT22;10189;49.546;7.906;2023-09-18T08:22:21;19.70;84.20
20057;DHT22;10189;49.546;7.906;2023-09-18T08:24:48;19.60;84.10
20057;DHT22;10189;49.546;7.906;2023-09-18T08:27:14;19.70;84.40
20057;DHT22;10189;49.546;7.906;2023-09-18T08:29:44;19.70;84.30
20057;DHT22;10189;49.546;7.906;2023-09-18T08:32:10;19.70;84.30
20057;DHT22;10189;49.546;7.906;2023-09-18T08:34:36;19.70;83.30
20057;DHT22;10189;49.546;7.906;2023-09-18T08:37:03;19.60;84.20
20057;DHT22;10189;49.546;7.906;2023-09-18T08:39:29;19.60;83.70
20057;DHT22;10189;49.546;7.906;2023-09-18T08:41:59;19.60;82.90
20057;DHT22;10189;49.546;7.906;2023-09-18T08:44:32;19.60;82.90
20057;DHT22;10189;49.546;7.906;2023-09-18T08:47:03;19.60;83.50
20057;DHT22;10189;49.546;7.906;2023-09-18T08:49:30;19.70;82.50
20057;DHT22;10189;49.546;7.906;2023-09-18T08:51:59;19.80;82.50
20057;DHT22;10189;49.546;7.906;2023-09-18T08:54:26;20.00;81.10
20057;DHT22;10189;49.546;7.906;2023-09-18T08:56:54;20.10;81.50
20057;DHT22;10189;49.546;7.906;2023-09-18T08:59:21;20.10;81.20
20057;DHT22;10189;49.546;7.906;2023-09-18T09:01:50;20.10;81.90
20057;DHT22;10189;49.546;7.906;2023-09-18T09:04:18;20.00;81.10
20057;DHT22;10189;49.546;7.906;2023-09-18T09:06:44;20.10;81.40
20057;DHT22;10189;49.546;7.906;2023-09-18T09:09:10;20.00;81.20
20057;DHT22;10189;49.546;7.906;2023-09-18T09:11:39;20.00;82.70
20057;DHT22;10189;49.546;7.906;2023-09-18T09:14:14;20.10;82.00
20057;DHT22;10189;49.546;7.906;2023-09-18T09:16:51;20.10;80.60
20057;DHT22;10189;49.546;7.906;2023-09-18T09:19:18;20.00;80.60
20057;DHT22;10189;49.546;7.906;2023-09-18T09:21:46;20.00;80.80
20057;DHT22;10189;49.546;7.906;2023-09-18T09:24:12;19.90;81.00
20057;DHT22;10189;49.546;7.906;2023-09-18T09:26:41;20.00;80.80
20057;DHT22;10189;49.546;7.906;2023-09-18T09:29:18;20.00;80.70
20057;DHT22;10189;49.546;7.906;2023-09-18T09:31:46;20.20;80.30
20057;DHT22;10189;49.546;7.906;2023-09-18T09:34:25;20.30;80.30
20057;DHT22;10189;49.546;7.906;2023-09-18T09:36:56;20.60;80.60
20057;DHT22;10189;49.546;7.906;2023-09-18T09:39:22;20.90;78.00
20057;DHT22;10189;49.546;7.906;2023-09-18T09:41:54;21.00;78.00
20057;DHT22;10189;49.546;7.906;2023-09-18T09:44:20;21.10;78.10
20057;DHT22;10189;49.546;7.906;2023-09-18T09:46:47;21.20;76.90
20057;DHT22;10189;49.546;7.906;2023-09-18T09:49:14;21.30;75.40
20057;DHT22;10189;49.546;7.906;2023-09-18T09:51:43;21.30;76.80
20057;DHT22;10189;49.546;7.906;2023-09-18T09:54:09;21.20;76.10
20057;DHT22;10189;49.546;7.906;2023-09-18T09:56:44;21.20;77.40
20057;DHT22;10189;49.546;7.906;2023-09-18T09:59:17;21.10;76.00
20057;DHT22;10189;49.546;7.906;2023-09-18T10:01:48;21.00;76.60
20057;DHT22;10189;49.546;7.906;2023-09-18T10:04:18;20.90;77.20
20057;DHT22;10189;49.546;7.906;2023-09-18T10:06:52;20.90;77.80
20057;DHT22;10189;49.546;7.906;2023-09-18T10:09:23;20.90;77.40
20057;DHT22;10189;49.546;7.906;2023-09-18T10:11:54;20.90;78.40
20057;DHT22;10189;49.546;7.906;2023-09-18T10:14:32;20.90;77.10
20057;DHT22;10189;49.546;7.906;2023-09-18T10:17:16;20.90;77.80
20057;DHT22;10189;49.546;7.906;2023-09-18T10:22:39;20.90;77.80
20057;DHT22;10189;49.546;7.906;2023-09-18T10:25:14;21.00;77.60
20057;DHT22;10189;49.546;7.906;2023-09-18T10:27:46;21.10;78.00
20057;DHT22;10189;49.546;7.906;2023-09-18T10:30:20;21.20;78.20
20057;DHT22;10189;49.546;7.906;2023-09-18T10:32:50;21.40;77.60
20057;DHT22;10189;49.546;7.906;2023-09-18T10:35:17;21.40;75.90
20057;DHT22;10189;49.546;7.906;2023-09-18T10:37:46;21.60;75.90
20057;DHT22;10189;49.546;7.906;2023-09-18T10:40:13;21.80;75.60
20057;DHT22;10189;49.546;7.906;2023-09-18T10:42:41;21.90;74.90
20057;DHT22;10189;49.546;7.906;2023-09-18T10:45:10;21.80;75.10
20057;DHT22;10189;49.546;7.906;2023-09-18T10:47:41;21.80;74.10
20057;DHT22;10189;49.546;7.906;2023-09-18T10:50:11;21.50;75.90
20057;DHT22;10189;49.546;7.906;2023-09-18T10:52:44;21.50;76.80
20057;DHT22;10189;49.546;7.906;2023-09-18T10:55:13;21.60;75.10
20057;DHT22;10189;49.546;7.906;2023-09-18T10:57:54;21.80;75.50
20057;DHT22;10189;49.546;7.906;2023-09-18T11:00:24;22.00;76.00
20057;DHT22;10189;49.546;7.906;2023-09-18T11:02:51;22.20;74.30
20057;DHT22;10189;49.546;7.906;2023-09-18T11:05:32;22.30;74.20
20057;DHT22;10189;49.546;7.906;2023-09-18T11:11:05;22.20;73.80
20057;DHT22;10189;49.546;7.906;2023-09-18T11:13:52;22.10;73.70
20057;DHT22;10189;49.546;7.906;2023-09-18T11:21:27;22.00;74.30
20057;DHT22;10189;49.546;7.906;2023-09-18T11:24:02;22.10;74.20
20057;DHT22;10189;49.546;7.906;2023-09-18T11:26:37;22.10;74.40
20057;DHT22;10189;49.546;7.906;2023-09-18T11:29:07;22.30;73.20
20057;DHT22;10189;49.546;7.906;2023-09-18T11:31:50;22.30;74.50
20057;DHT22;10189;49.546;7.906;2023-09-18T11:34:27;22.20;75.10
20057;DHT22;10189;49.546;7.906;2023-09-18T11:36:55;22.10;73.40
20057;DHT22;10189;49.546;7.906;2023-09-18T11:39:39;22.00;74.40
20057;DHT22;10189;49.546;7.906;2023-09-18T11:42:10;22.00;74.70
20057;DHT22;10189;49.546;7.906;2023-09-18T11:44:44;22.00;74.70
20057;DHT22;10189;49.546;7.906;2023-09-18T11:47:23;22.00;76.00
20057;DHT22;10189;49.546;7.906;2023-09-18T11:49:56;21.80;75.00
20057;DHT22;10189;49.546;7.906;2023-09-18T11:52:34;21.70;75.10
20057;DHT22;10189;49.546;7.906;2023-09-18T11:55:00;21.90;75.90
20057;DHT22;10189;49.546;7.906;2023-09-18T11:57:27;22.20;75.90
20057;DHT22;10189;49.546;7.906;2023-09-18T11:59:54;22.40;75.10
20057;DHT22;10189;49.546;7.906;2023-09-18T12:02:27;22.70;72.70
20057;DHT22;10189;49.546;7.906;2023-09-18T12:05:20;22.80;73.50
20057;DHT22;10189;49.546;7.906;2023-09-18T12:07:51;22.70;72.30
20057;DHT22;10189;49.546;7.906;2023-09-18T12:10:19;22.70;72.40
20057;DHT22;10189;49.546;7.906;2023-09-18T12:12:49;22.80;72.50
20057;DHT22;10189;49.546;7.906;2023-09-18T12:15:17;23.00;73.10
20057;DHT22;10189;49.546;7.906;2023-09-18T12:17:45;23.10;72.50
20057;DHT22;10189;49.546;7.906;2023-09-18T12:20:15;23.00;71.30
20057;DHT22;10189;49.546;7.906;2023-09-18T12:22:48;23.00;71.10
20057;DHT22;10189;49.546;7.906;2023-09-18T12:25:15;22.90;70.20
20057;DHT22;10189;49.546;7.906;2023-09-18T12:27:44;22.70;71.30
20057;DHT22;10189;49.546;7.906;2023-09-18T12:30:11;22.50;71.90
20057;DHT22;10189;49.546;7.906;2023-09-18T12:32:38;22.50;72.30
20057;DHT22;10189;49.546;7.906;2023-09-18T12:35:08;22.30;72.60
20057;DHT22;10189;49.546;7.906;2023-09-18T12:37:39;22.30;72.90
20057;DHT22;10189;49.546;7.906;2023-09-18T12:40:19;22.40;72.40
20057;DHT22;10189;49.546;7.906;2023-09-18T12:42:47;22.50;72.40
20057;DHT22;10189;49.546;7.906;2023-09-18T12:45:14;22.50;71.30
20057;DHT22;10189;49.546;7.906;2023-09-18T12:47:40;22.50;72.00
20057;DHT22;10189;49.546;7.906;2023-09-18T12:50:06;22.50;70.90
20057;DHT22;10189;49.546;7.906;2023-09-18T12:52:32;22.50;72.10
20057;DHT22;10189;49.546;7.906;2023-09-18T12:54:59;22.60;72.40
20057;DHT22;10189;49.546;7.906;2023-09-18T12:57:27;22.70;71.10
20057;DHT22;10189;49.546;7.906;2023-09-18T12:59:54;22.80;70.00
20057;DHT22;10189;49.546;7.906;2023-09-18T13:02:21;23.00;69.80
20057;DHT22;10189;49.546;7.906;2023-09-18T13:04:55;23.00;69.90
20057;DHT22;10189;49.546;7.906;2023-09-18T13:07:22;23.00;69.20
20057;DHT22;10189;49.546;7.906;2023-09-18T13:09:59;22.70;71.20
20057;DHT22;10189;49.546;7.906;2023-09-18T13:12:47;22.80;70.20
20057;DHT22;10189;49.546;7.906;2023-09-18T13:17:57;23.00;70.20
20057;DHT22;10189;49.546;7.906;2023-09-18T13:20:28;23.10;69.90
20057;DHT22;10189;49.546;7.906;2023-09-18T13:22:56;23.20;71.10
20057;DHT22;10189;49.546;7.906;2023-09-18T13:28:00;23.30;69.40
20057;DHT22;10189;49.546;7.906;2023-09-18T13:30:29;23.50;70.60
20057;DHT22;10189;49.546;7.906;2023-09-18T13:33:07;23.60;69.00
20057;DHT22;10189;49.546;7.906;2023-09-18T13:35:36;23.80;68.40
20057;DHT22;10189;49.546;7.906;2023-09-18T13:38:05;24.10;66.50
20057;DHT22;10189;49.546;7.906;2023-09-18T13:40:34;24.00;65.90
20057;DHT22;10189;49.546;7.906;2023-09-18T13:43:04;24.10;67.10
20057;DHT22;10189;49.546;7.906;2023-09-18T13:45:32;24.20;65.90
20057;DHT22;10189;49.546;7.906;2023-09-18T13:47:58;24.10;65.70
20057;DHT22;10189;49.546;7.906;2023-09-18T13:50:24;24.20;65.60
20057;DHT22;10189;49.546;7.906;2023-09-18T13:52:50;24.10;64.70
20057;DHT22;10189;49.546;7.906;2023-09-18T13:55:16;24.00;64.80
20057;DHT22;10189;49.546;7.906;2023-09-18T13:57:42;23.90;63.90
20057;DHT22;10189;49.546;7.906;2023-09-18T14:00:09;23.60;64.80
20057;DHT22;10189;49.546;7.906;2023-09-18T14:02:40;23.60;66.40
20057;DHT22;10189;49.546;7.906;2023-09-18T14:05:07;23.70;65.70
20057;DHT22;10189;49.546;7.906;2023-09-18T14:07:35;23.90;65.60
20057;DHT22;10189;49.546;7.906;2023-09-18T14:10:01;24.10;64.10
20057;DHT22;10189;49.546;7.906;2023-09-18T14:12:30;23.90;64.60
20057;DHT22;10189;49.546;7.906;2023-09-18T14:14:57;23.80;65.20
20057;DHT22;10189;49.546;7.906;2023-09-18T14:17:23;23.50;64.50
20057;DHT22;10189;49.546;7.906;2023-09-18T14:19:49;23.40;66.10
20057;DHT22;10189;49.546;7.906;2023-09-18T15:15:41;23.00;64.80
20057;DHT22;10189;49.546;7.906;2023-09-18T15:18:09;23.00;64.40
20057;DHT22;10189;49.546;7.906;2023-09-18T15:20:35;23.00;65.00
20057;DHT22;10189;49.546;7.906;2023-09-18T15:23:01;23.00;65.90
20057;DHT22;10189;49.546;7.906;2023-09-18T15:25:27;22.80;65.70
20057;DHT22;10189;49.546;7.906;2023-09-18T15:27:53;22.70;65.50
20057;DHT22;10189;49.546;7.906;2023-09-18T15:30:24;22.60;66.80
20057;DHT22;10189;49.546;7.906;2023-09-18T15:32:54;22.50;66.80
20057;DHT22;10189;49.546;7.906;2023-09-18T15:36:07;22.30;66.70
20057;DHT22;10189;49.546;7.906;2023-09-18T15:38:48;22.20;67.60
20057;DHT22;10189;49.546;7.906;2023-09-18T15:41:47;22.20;67.70
20057;DHT22;10189;49.546;7.906;2023-09-18T15:45:32;22.10;68.60
20057;DHT22;10189;49.546;7.906;2023-09-18T15:48:32;22.10;68.30
20057;DHT22;10189;49.546;7.906;2023-09-18T15:50:58;22.00;67.20
20057;DHT22;10189;49.546;7.906;2023-09-18T15:53:29;22.00;67.40
20057;DHT22;10189;49.546;7.906;2023-09-18T15:55:58;21.90;67.80
20057;DHT22;10189;49.546;7.906;2023-09-18T15:58:25;21.80;68.90
20057;DHT22;10189;49.546;7.906;2023-09-18T16:00:53;21.80;68.30
20057;DHT22;10189;49.546;7.906;2023-09-18T16:03:46;21.70;69.10
20057;DHT22;10189;49.546;7.906;2023-09-18T16:06:28;21.70;69.00
20057;DHT22;10189;49.546;7.906;2023-09-18T16:09:02;21.60;69.30
20057;DHT22;10189;49.546;7.906;2023-09-18T16:11:41;21.60;69.80
20057;DHT22;10189;49.546;7.906;2023-09-18T16:14:09;21.50;69.90
20057;DHT22;10189;49.546;7.906;2023-09-18T16:16:48;21.50;69.90
20057;DHT22;10189;49.546;7.906;2023-09-18T16:19:20;21.50;70.00
20057;DHT22;10189;49.546;7.906;2023-09-18T16:21:49;21.40;70.80
20057;DHT22;10189;49.546;7.906;2023-09-18T16:24:18;21.20;71.00
20057;DHT22;10189;49.546;7.906;2023-09-18T16:27:00;21.20;71.40
20057;DHT22;10189;49.546;7.906;2023-09-18T16:29:34;21.10;71.80
20057;DHT22;10189;49.546;7.906;2023-09-18T16:32:56;21.00;73.20
20057;DHT22;10189;49.546;7.906;2023-09-18T16:42:57;20.50;77.70
20057;DHT22;10189;49.546;7.906;2023-09-18T16:50:28;19.90;82.90
20057;DHT22;10189;49.546;7.906;2023-09-18T16:53:02;19.70;85.40
20057;DHT22;10189;49.546;7.906;2023-09-18T16:55:37;19.60;86.70
20057;DHT22;10189;49.546;7.906;2023-09-18T16:58:26;19.40;87.90
20057;DHT22;10189;49.546;7.906;2023-09-18T17:00:55;19.10;89.60
20057;DHT22;10189;49.546;7.906;2023-09-18T17:03:37;18.90;91.20
20057;DHT22;10189;49.546;7.906;2023-09-18T17:06:12;18.60;91.60
20057;DHT22;10189;49.546;7.906;2023-09-18T17:08:46;18.50;92.10
20057;DHT22;10189;49.546;7.906;2023-09-18T17:11:21;18.50;93.60